< Typhoon 196816 1968 Season Typhoon 196818 >
Typhoon 196817 (ELAINE)
General InformationTrack Information on Google Maps || Disaster Info.ResourceGoogle EarthGE AnimationAtom FeedGeoJSON
Detalied Best Track (Time Zone = UTC)
Year Month Day Hour Lat. Long. Pressure (hPa) Wind (kt) Class Image Chart
1968 9 22 06 6.3 142.3 1004 0 2 -- Chart
1968 9 22 12 6.9 141.7 1006 0 2 -- Chart
1968 9 22 18 7.4 139.3 1004 0 2 -- Chart
1968 9 23 00 8.0 138.0 1006 0 2 -- Chart
1968 9 23 06 8.4 136.6 1004 0 2 -- Chart
1968 9 23 12 8.7 135.9 1006 0 2 -- Chart
1968 9 23 18 9.0 135.0 1004 0 2 -- Chart
1968 9 24 00 9.2 134.2 1004 0 2 -- Chart
1968 9 24 06 9.6 133.2 1000 0 2 -- Chart
1968 9 24 12 10.1 132.1 990 0 2 -- Chart
1968 9 24 18 11.0 131.0 985 0 2 -- Chart
1968 9 25 00 11.4 130.4 980 0 9 -- Chart
1968 9 25 06 12.0 130.0 980 0 9 -- Chart
1968 9 25 12 12.7 129.5 985 0 9 -- Chart
1968 9 25 18 13.3 128.9 985 0 9 -- Chart
1968 9 26 00 13.9 128.2 970 0 9 -- Chart
1968 9 26 06 14.5 127.7 955 0 9 -- Chart
1968 9 26 12 15.2 126.8 945 0 9 -- Chart
1968 9 26 18 15.8 126.0 930 0 9 -- Chart
1968 9 27 00 16.3 125.2 915 0 9 -- Chart
1968 9 27 06 16.9 124.5 910 0 9 -- Chart
1968 9 27 12 17.1 123.9 915 0 9 -- Chart
1968 9 27 18 17.3 123.1 920 0 9 -- Chart
1968 9 28 00 17.6 122.9 925 0 9 -- Chart
1968 9 28 06 17.8 122.3 935 0 9 -- Chart
1968 9 28 12 18.2 121.8 940 0 9 -- Chart
1968 9 28 18 18.7 121.1 950 0 9 -- Chart
1968 9 29 00 19.0 120.1 955 0 9 -- Chart
1968 9 29 06 19.2 119.8 965 0 9 -- Chart
1968 9 29 12 19.6 119.1 970 0 9 -- Chart
1968 9 29 18 20.0 118.9 975 0 9 -- Chart
1968 9 30 00 20.3 118.3 980 0 9 -- Chart
1968 9 30 06 20.9 118.1 980 0 9 -- Chart
1968 9 30 12 21.7 117.7 980 0 9 -- Chart
1968 9 30 18 22.1 117.3 985 0 9 -- Chart
1968 10 1 00 22.5 116.9 985 0 9 -- Chart
1968 10 1 06 23.1 116.4 988 0 9 -- Chart
1968 10 1 12 23.5 116.3 1000 0 2 -- Chart
1968 10 1 18 23.6 116.5 1004 0 2 -- Chart
1968 10 2 00 23.6 116.8 1008 0 2 -- Chart
1968 10 2 06 23.7 117.0 1008 0 6 -- Chart
1968 10 2 12 23.7 117.1 1010 0 6 -- Chart
1968 10 2 18 23.7 117.9 1009 0 6 -- Chart
1968 10 3 00 23.0 118.0 1010 0 6 -- Chart
1968 10 3 06 24.0 117.0 1009 0 6 -- Chart
1968 10 3 12 26.0 118.0 1010 0 6 -- Chart
1968 10 3 18 26.8 117.2 1010 0 6 -- Chart
Japan Meteorological Agency Best Track Data | Correction Date : 1989-06-01
< Typhoon 196816 1968 Season Typhoon 196818 >

Help